Seifukumaru No.2 — JL6661 — position and weather

sailwx.info

Track history (hours):
 
Tides and Currents Weather Stations Pressure Air Temp Water Temp Dewpoint Dewpoint Depression Visibility Wind Speed Wind Dir Waves Ship Positions

Seifukumaru No.2

Last reported at 2018-Apr-24 11:49 UTC. Time now 2018-Apr-25 06:49 UTC.
Position N 34°01' E 132°46'.

Length 75 m; draft 3 m.

Type: Cargo ship. MMSI: 431501654.

Date/timePositionNaut miles runAvg speedWind from/ knotsBaromVisibWave heightAir tempDewpointWater temp
2018-Apr-24 11:49N 34°01' E 132°46'310.9
2018-Apr-24 11:31N 33°58' E 132°43'611.2
2018-Apr-24 10:58N 33°54' E 132°38'812.0
2018-Apr-24 10:19N 33°52' E 132°29'612.0
2018-Apr-24 09:51N 33°50' E 132°22'511.8
2018-Apr-24 09:23N 33°50' E 132°16'912.0
2018-Apr-24 08:38N 33°46' E 132°06'212.4
2018-Apr-24 08:30N 33°45' E 132°04'2711.0
2018-Apr-24 06:00N 34°00' E 131°37'2 1.6
2018-Apr-24 04:48N 34°02' E 131°36'0 0.0
2018-Apr-23 23:32N 34°02' E 131°36'0 0.0
2018-Apr-23 23:30N 34°02' E 131°36'2 0.1
2018-Apr-23 07:16N 34°00' E 131°37'0 0.0
2018-Apr-23 01:27N 34°00' E 131°37'4 9.5
2018-Apr-23 01:00N 33°57' E 131°39'611.8
2018-Apr-23 00:30N 33°53' E 131°45'612.2
2018-Apr-23 00:00N 33°49' E 131°51'611.9
2018-Apr-22 23:30N 33°46' E 131°57'612.2
2018-Apr-22 22:58N 33°46' E 132°04'612.9
2018-Apr-22 22:30N 33°49' E 132°11'712.5
2018-Apr-22 21:59N 33°50' E 132°18'811.8
2018-Apr-22 21:19N 33°53' E 132°27'512.8
2018-Apr-22 20:55N 33°57' E 132°32'511.7
2018-Apr-22 20:30N 34°00' E 132°36'612.3
2018-Apr-22 20:00N 34°03' E 132°42'7110.6
2018-Apr-22 13:15N 34°27' E 134°03'1711.9
2018-Apr-22 11:52N 34°22' E 134°23'511.6
2018-Apr-22 11:28N 34°20' E 134°28'911.9
2018-Apr-22 10:41N 34°16' E 134°38'210.5
2018-Apr-22 10:29N 34°14' E 134°39'610.6
2018-Apr-22 09:57N 34°09' E 134°43'511.4
2018-Apr-22 09:30N 34°05' E 134°47'611.6
2018-Apr-22 09:00N 34°01' E 134°51'611.5
2018-Apr-22 08:31N 33°56' E 134°56'611.5
2018-Apr-22 08:00N 33°52' E 135°00'611.4
2018-Apr-22 07:30N 33°48' E 135°05'17510.0
2018-Apr-21 13:57N 34°33' E 138°29'1511.4
2018-Apr-21 12:39N 34°35' E 138°47'210.8
2018-Apr-21 12:30N 34°35' E 138°49'611.1
2018-Apr-21 12:00N 34°36' E 138°56'711.8
2018-Apr-21 11:26N 34°41' E 139°02'1410.8
2018-Apr-21 10:11N 34°52' E 139°11'210.4
2018-Apr-21 09:59N 34°53' E 139°13'6 9.8
2018-Apr-21 09:21N 34°56' E 139°20'3 8.9
2018-Apr-21 08:58N 34°57' E 139°23'4 8.5
2018-Apr-21 08:31N 34°59' E 139°28'5 9.4
2018-Apr-21 08:00N 35°01' E 139°33'510.0
2018-Apr-21 07:30N 35°04' E 139°38'510.3
2018-Apr-21 07:00N 35°07' E 139°43'510.5
2018-Apr-21 06:30N 35°12' E 139°46'510.0
2018-Apr-21 06:00N 35°17' E 139°45'510.4
2018-Apr-21 05:30N 35°22' E 139°42'510.7
2018-Apr-21 05:01N 35°27' E 139°43'3 6.3
2018-Apr-21 04:30N 35°30' E 139°43'0 0.0
2018-Apr-21 02:32N 35°30' E 139°43'0 0.0
2018-Apr-21 01:55N 35°30' E 139°43'0 0.0
2018-Apr-21 01:15N 35°30' E 139°43'0 0.0
2018-Apr-21 01:00N 35°30' E 139°43'1 1.6
2018-Apr-21 00:30N 35°29' E 139°43'1 1.1
2018-Apr-21 00:00N 35°30' E 139°44'5 9.1
2018-Apr-20 23:31N 35°30' E 139°49'1 0.0
2018-Apr-20 08:31N 35°31' E 139°50'0 0.0
2018-Apr-20 08:30N 35°31' E 139°50'4 7.8
2018-Apr-20 08:00N 35°33' E 139°53'611.3
2018-Apr-20 07:30N 35°38' E 139°58'1 0.1
2018-Apr-20 01:57N 35°38' E 139°59'0 0.1
2018-Apr-19 21:33N 35°38' E 139°59'110.3
2018-Apr-19 21:30N 35°37' E 139°59'2 2.5
2018-Apr-19 20:51N 35°36' E 139°57'0 0.0
2018-Apr-19 20:30N 35°36' E 139°57'0 0.0
2018-Apr-19 19:56N 35°36' E 139°57'0 0.0
2018-Apr-19 19:30N 35°36' E 139°57'0 0.0
2018-Apr-19 19:00N 35°36' E 139°57'0 0.0
2018-Apr-19 18:31N 35°36' E 139°57'0 0.0
2018-Apr-19 18:00N 35°36' E 139°57'0 0.0
2018-Apr-19 17:30N 35°36' E 139°57'0 0.0
2018-Apr-19 16:59N 35°36' E 139°57'0 0.0
2018-Apr-19 16:10N 35°36' E 139°57'0 0.0
2018-Apr-19 15:58N 35°36' E 139°57'2 5.2
2018-Apr-19 15:29N 35°34' E 139°56'511.1
2018-Apr-19 15:00N 35°29' E 139°52'510.7
2018-Apr-19 14:30N 35°25' E 139°48'5 9.5
2018-Apr-19 14:00N 35°21' E 139°45'5 9.1
2018-Apr-19 13:30N 35°17' E 139°46'510.0
2018-Apr-19 13:01N 35°12' E 139°47'510.9
2018-Apr-19 12:31N 35°07' E 139°44'611.1
2018-Apr-19 12:00N 35°02' E 139°40'611.6
2018-Apr-19 11:31N 34°59' E 139°35'711.9
2018-Apr-19 10:57N 34°55' E 139°28'612.7
2018-Apr-19 10:28N 34°51' E 139°22'911.6
2018-Apr-19 09:43N 34°46' E 139°13'210.8
2018-Apr-19 09:30N 34°45' E 139°11'611.1
2018-Apr-19 09:00N 34°42' E 139°06'710.3
2018-Apr-19 08:22N 34°37' E 138°60'4 9.9
2018-Apr-19 08:00N 34°35' E 138°56'611.4
2018-Apr-19 07:26N 34°34' E 138°49'511.7
2018-Apr-19 06:59N 34°33' E 138°42'611.7
2018-Apr-19 06:30N 34°32' E 138°35'1411.4
2018-Apr-19 05:16N 34°30' E 138°19'410.7
2018-Apr-19 04:55N 34°30' E 138°14'510.5
2018-Apr-19 04:28N 34°29' E 138°08'158 8.5
2018-Apr-18 09:48N 33°49' E 135°03'310.6
2018-Apr-18 09:30N 33°52' E 135°01'610.3
2018-Apr-18 08:57N 33°56' E 134°56'510.5
2018-Apr-18 08:30N 33°60' E 134°53'510.5
2018-Apr-18 08:00N 34°04' E 134°48'611.3
2018-Apr-18 07:30N 34°08' E 134°44'612.2
2018-Apr-18 07:00N 34°13' E 134°40'611.4
2018-Apr-18 06:30N 34°17' E 134°35'611.2
2018-Apr-18 05:59N 34°19' E 134°28'511.2
2018-Apr-18 05:30N 34°21' E 134°22'711.7
2018-Apr-18 04:57N 34°23' E 134°15'19 0.6
2018-Apr-16 18:29N 34°25' E 133°52'0 0.0
2018-Apr-16 14:05N 34°25' E 133°52'2711.5
2018-Apr-16 11:46N 34°21' E 134°24'312.0
2018-Apr-16 11:30N 34°20' E 134°27'912.4
2018-Apr-16 10:45N 34°17' E 134°38'314.5
2018-Apr-16 10:30N 34°13' E 134°39'612.1
2018-Apr-16 10:00N 34°07' E 134°40'510.3
2018-Apr-16 09:30N 34°03' E 134°37'1 0.1
2018-Apr-15 22:22N 34°03' E 134°36'1 2.8
2018-Apr-15 21:54N 34°03' E 134°38'5 9.0
2018-Apr-15 21:19N 34°03' E 134°44'411.2
2018-Apr-15 20:59N 34°00' E 134°47'610.8
2018-Apr-15 20:28N 33°56' E 134°51'511.2
2018-Apr-15 19:59N 33°52' E 134°55'510.9
2018-Apr-15 19:30N 33°48' E 134°60'610.9
2018-Apr-15 18:59N 33°44' E 135°04'  
Track history (hours):
 
Tides and Currents Weather Stations Pressure Air Temp Water Temp Dewpoint Dewpoint Depression Visibility Wind Speed Wind Dir Waves Ship Positions

Seifukumaru No.2

Last reported at 2018-Apr-24 11:49 UTC. Time now 2018-Apr-25 06:49 UTC.
Position N 34°01' E 132°46'.

Length 75 m; draft 3 m.

Type: Cargo ship. MMSI: 431501654.

Date/timePositionNaut miles runAvg speedWind from/ knotsBaromVisibWave heightAir tempDewpointWater temp
2018-Apr-24 11:49N 34°01' E 132°46'310.9
2018-Apr-24 11:31N 33°58' E 132°43'611.2
2018-Apr-24 10:58N 33°54' E 132°38'812.0
2018-Apr-24 10:19N 33°52' E 132°29'612.0
2018-Apr-24 09:51N 33°50' E 132°22'511.8
2018-Apr-24 09:23N 33°50' E 132°16'912.0
2018-Apr-24 08:38N 33°46' E 132°06'212.4
2018-Apr-24 08:30N 33°45' E 132°04'2711.0
2018-Apr-24 06:00N 34°00' E 131°37'2 1.6
2018-Apr-24 04:48N 34°02' E 131°36'0 0.0
2018-Apr-23 23:32N 34°02' E 131°36'0 0.0
2018-Apr-23 23:30N 34°02' E 131°36'2 0.1
2018-Apr-23 07:16N 34°00' E 131°37'0 0.0
2018-Apr-23 01:27N 34°00' E 131°37'4 9.5
2018-Apr-23 01:00N 33°57' E 131°39'611.8
2018-Apr-23 00:30N 33°53' E 131°45'612.2
2018-Apr-23 00:00N 33°49' E 131°51'611.9
2018-Apr-22 23:30N 33°46' E 131°57'612.2
2018-Apr-22 22:58N 33°46' E 132°04'612.9
2018-Apr-22 22:30N 33°49' E 132°11'712.5
2018-Apr-22 21:59N 33°50' E 132°18'811.8
2018-Apr-22 21:19N 33°53' E 132°27'512.8
2018-Apr-22 20:55N 33°57' E 132°32'511.7
2018-Apr-22 20:30N 34°00' E 132°36'612.3
2018-Apr-22 20:00N 34°03' E 132°42'7110.6
2018-Apr-22 13:15N 34°27' E 134°03'1711.9
2018-Apr-22 11:52N 34°22' E 134°23'511.6
2018-Apr-22 11:28N 34°20' E 134°28'911.9
2018-Apr-22 10:41N 34°16' E 134°38'210.5
2018-Apr-22 10:29N 34°14' E 134°39'610.6
2018-Apr-22 09:57N 34°09' E 134°43'511.4
2018-Apr-22 09:30N 34°05' E 134°47'611.6
2018-Apr-22 09:00N 34°01' E 134°51'611.5
2018-Apr-22 08:31N 33°56' E 134°56'611.5
2018-Apr-22 08:00N 33°52' E 135°00'611.4
2018-Apr-22 07:30N 33°48' E 135°05'17510.0
2018-Apr-21 13:57N 34°33' E 138°29'1511.4
2018-Apr-21 12:39N 34°35' E 138°47'210.8
2018-Apr-21 12:30N 34°35' E 138°49'611.1
2018-Apr-21 12:00N 34°36' E 138°56'711.8
2018-Apr-21 11:26N 34°41' E 139°02'1410.8
2018-Apr-21 10:11N 34°52' E 139°11'210.4
2018-Apr-21 09:59N 34°53' E 139°13'6 9.8
2018-Apr-21 09:21N 34°56' E 139°20'3 8.9
2018-Apr-21 08:58N 34°57' E 139°23'4 8.5
2018-Apr-21 08:31N 34°59' E 139°28'5 9.4
2018-Apr-21 08:00N 35°01' E 139°33'510.0
2018-Apr-21 07:30N 35°04' E 139°38'510.3
2018-Apr-21 07:00N 35°07' E 139°43'510.5
2018-Apr-21 06:30N 35°12' E 139°46'510.0
2018-Apr-21 06:00N 35°17' E 139°45'510.4
2018-Apr-21 05:30N 35°22' E 139°42'510.7
2018-Apr-21 05:01N 35°27' E 139°43'3 6.3
2018-Apr-21 04:30N 35°30' E 139°43'0 0.0
2018-Apr-21 02:32N 35°30' E 139°43'0 0.0
2018-Apr-21 01:55N 35°30' E 139°43'0 0.0
2018-Apr-21 01:15N 35°30' E 139°43'0 0.0
2018-Apr-21 01:00N 35°30' E 139°43'1 1.6
2018-Apr-21 00:30N 35°29' E 139°43'1 1.1
2018-Apr-21 00:00N 35°30' E 139°44'5 9.1
2018-Apr-20 23:31N 35°30' E 139°49'1 0.0
2018-Apr-20 08:31N 35°31' E 139°50'0 0.0
2018-Apr-20 08:30N 35°31' E 139°50'4 7.8
2018-Apr-20 08:00N 35°33' E 139°53'611.3
2018-Apr-20 07:30N 35°38' E 139°58'1 0.1
2018-Apr-20 01:57N 35°38' E 139°59'0 0.1
2018-Apr-19 21:33N 35°38' E 139°59'110.3
2018-Apr-19 21:30N 35°37' E 139°59'2 2.5
2018-Apr-19 20:51N 35°36' E 139°57'0 0.0
2018-Apr-19 20:30N 35°36' E 139°57'0 0.0
2018-Apr-19 19:56N 35°36' E 139°57'0 0.0
2018-Apr-19 19:30N 35°36' E 139°57'0 0.0
2018-Apr-19 19:00N 35°36' E 139°57'0 0.0
2018-Apr-19 18:31N 35°36' E 139°57'0 0.0
2018-Apr-19 18:00N 35°36' E 139°57'0 0.0
2018-Apr-19 17:30N 35°36' E 139°57'0 0.0
2018-Apr-19 16:59N 35°36' E 139°57'0 0.0
2018-Apr-19 16:10N 35°36' E 139°57'0 0.0
2018-Apr-19 15:58N 35°36' E 139°57'2 5.2
2018-Apr-19 15:29N 35°34' E 139°56'511.1
2018-Apr-19 15:00N 35°29' E 139°52'510.7
2018-Apr-19 14:30N 35°25' E 139°48'5 9.5
2018-Apr-19 14:00N 35°21' E 139°45'5 9.1
2018-Apr-19 13:30N 35°17' E 139°46'510.0
2018-Apr-19 13:01N 35°12' E 139°47'510.9
2018-Apr-19 12:31N 35°07' E 139°44'611.1
2018-Apr-19 12:00N 35°02' E 139°40'611.6
2018-Apr-19 11:31N 34°59' E 139°35'711.9
2018-Apr-19 10:57N 34°55' E 139°28'612.7
2018-Apr-19 10:28N 34°51' E 139°22'911.6
2018-Apr-19 09:43N 34°46' E 139°13'210.8
2018-Apr-19 09:30N 34°45' E 139°11'611.1
2018-Apr-19 09:00N 34°42' E 139°06'710.3
2018-Apr-19 08:22N 34°37' E 138°60'4 9.9
2018-Apr-19 08:00N 34°35' E 138°56'611.4
2018-Apr-19 07:26N 34°34' E 138°49'511.7
2018-Apr-19 06:59N 34°33' E 138°42'611.7
2018-Apr-19 06:30N 34°32' E 138°35'1411.4
2018-Apr-19 05:16N 34°30' E 138°19'410.7
2018-Apr-19 04:55N 34°30' E 138°14'510.5
2018-Apr-19 04:28N 34°29' E 138°08'158 8.5
2018-Apr-18 09:48N 33°49' E 135°03'310.6
2018-Apr-18 09:30N 33°52' E 135°01'610.3
2018-Apr-18 08:57N 33°56' E 134°56'510.5
2018-Apr-18 08:30N 33°60' E 134°53'510.5
2018-Apr-18 08:00N 34°04' E 134°48'611.3
2018-Apr-18 07:30N 34°08' E 134°44'612.2
2018-Apr-18 07:00N 34°13' E 134°40'611.4
2018-Apr-18 06:30N 34°17' E 134°35'611.2
2018-Apr-18 05:59N 34°19' E 134°28'511.2
2018-Apr-18 05:30N 34°21' E 134°22'711.7
2018-Apr-18 04:57N 34°23' E 134°15'19 0.6
2018-Apr-16 18:29N 34°25' E 133°52'0 0.0
2018-Apr-16 14:05N 34°25' E 133°52'2711.5
2018-Apr-16 11:46N 34°21' E 134°24'312.0
2018-Apr-16 11:30N 34°20' E 134°27'912.4
2018-Apr-16 10:45N 34°17' E 134°38'314.5
2018-Apr-16 10:30N 34°13' E 134°39'612.1
2018-Apr-16 10:00N 34°07' E 134°40'510.3
2018-Apr-16 09:30N 34°03' E 134°37'1 0.1
2018-Apr-15 22:22N 34°03' E 134°36'1 2.8
2018-Apr-15 21:54N 34°03' E 134°38'5 9.0
2018-Apr-15 21:19N 34°03' E 134°44'411.2
2018-Apr-15 20:59N 34°00' E 134°47'610.8
2018-Apr-15 20:28N 33°56' E 134°51'511.2
2018-Apr-15 19:59N 33°52' E 134°55'510.9
2018-Apr-15 19:30N 33°48' E 134°60'610.9
2018-Apr-15 18:59N 33°44' E 135°04'  

Dump ship's entire track history